sensor_id;sensor_type;location;lat;lon;timestamp;P1;durP1;ratioP1;P2;durP2;ratioP2
43710;SDS011;29309;42.682;23.372;2022-12-22T00:02:35;155.55;;;64.93;;
43710;SDS011;29309;42.682;23.372;2022-12-22T00:05:20;192.50;;;76.32;;
43710;SDS011;29309;42.682;23.372;2022-12-22T00:08:05;175.95;;;68.75;;
43710;SDS011;29309;42.682;23.372;2022-12-22T00:10:50;168.73;;;71.97;;
43710;SDS011;29309;42.682;23.372;2022-12-22T00:13:36;162.05;;;65.90;;
43710;SDS011;29309;42.682;23.372;2022-12-22T00:16:30;182.98;;;67.70;;
43710;SDS011;29309;42.682;23.372;2022-12-22T00:19:15;147.07;;;58.97;;
43710;SDS011;29309;42.682;23.372;2022-12-22T00:22:00;158.77;;;61.75;;
43710;SDS011;29309;42.682;23.372;2022-12-22T00:24:49;155.25;;;65.10;;
43710;SDS011;29309;42.682;23.372;2022-12-22T00:27:33;183.15;;;70.05;;
43710;SDS011;29309;42.682;23.372;2022-12-22T00:30:18;173.68;;;69.80;;
43710;SDS011;29309;42.682;23.372;2022-12-22T00:33:02;174.63;;;69.53;;
43710;SDS011;29309;42.682;23.372;2022-12-22T00:35:48;180.60;;;66.50;;
43710;SDS011;29309;42.682;23.372;2022-12-22T00:38:33;146.48;;;63.67;;
43710;SDS011;29309;42.682;23.372;2022-12-22T00:41:17;164.20;;;66.60;;
43710;SDS011;29309;42.682;23.372;2022-12-22T00:44:01;164.52;;;66.45;;
43710;SDS011;29309;42.682;23.372;2022-12-22T00:46:45;168.85;;;70.75;;
43710;SDS011;29309;42.682;23.372;2022-12-22T00:49:30;168.70;;;69.97;;
43710;SDS011;29309;42.682;23.372;2022-12-22T00:52:16;186.40;;;72.65;;
43710;SDS011;29309;42.682;23.372;2022-12-22T00:55:11;176.15;;;69.00;;
43710;SDS011;29309;42.682;23.372;2022-12-22T00:57:59;188.02;;;69.03;;
43710;SDS011;29309;42.682;23.372;2022-12-22T01:00:45;158.00;;;68.57;;
43710;SDS011;29309;42.682;23.372;2022-12-22T01:03:29;176.23;;;71.63;;
43710;SDS011;29309;42.682;23.372;2022-12-22T01:06:13;164.80;;;71.65;;
43710;SDS011;29309;42.682;23.372;2022-12-22T01:08:57;171.90;;;69.43;;
43710;SDS011;29309;42.682;23.372;2022-12-22T01:11:41;178.65;;;69.43;;
43710;SDS011;29309;42.682;23.372;2022-12-22T01:14:25;138.95;;;58.72;;
43710;SDS011;29309;42.682;23.372;2022-12-22T01:17:09;138.25;;;54.90;;
43710;SDS011;29309;42.682;23.372;2022-12-22T01:19:53;147.63;;;59.22;;
43710;SDS011;29309;42.682;23.372;2022-12-22T01:22:37;147.65;;;63.22;;
43710;SDS011;29309;42.682;23.372;2022-12-22T01:25:21;159.68;;;66.85;;
43710;SDS011;29309;42.682;23.372;2022-12-22T01:28:05;162.68;;;67.22;;
43710;SDS011;29309;42.682;23.372;2022-12-22T01:30:49;160.63;;;67.03;;
43710;SDS011;29309;42.682;23.372;2022-12-22T01:33:33;141.60;;;59.90;;
43710;SDS011;29309;42.682;23.372;2022-12-22T01:36:17;170.90;;;64.55;;
43710;SDS011;29309;42.682;23.372;2022-12-22T01:39:01;143.85;;;63.75;;
43710;SDS011;29309;42.682;23.372;2022-12-22T01:41:45;139.65;;;58.47;;
43710;SDS011;29309;42.682;23.372;2022-12-22T01:47:29;132.73;;;52.92;;
43710;SDS011;29309;42.682;23.372;2022-12-22T01:50:16;121.95;;;50.90;;
43710;SDS011;29309;42.682;23.372;2022-12-22T01:53:04;130.98;;;51.30;;
43710;SDS011;29309;42.682;23.372;2022-12-22T01:55:51;141.70;;;51.75;;
43710;SDS011;29309;42.682;23.372;2022-12-22T01:58:37;146.85;;;58.42;;
43710;SDS011;29309;42.682;23.372;2022-12-22T02:01:26;143.40;;;57.25;;
43710;SDS011;29309;42.682;23.372;2022-12-22T02:04:13;131.57;;;53.17;;
43710;SDS011;29309;42.682;23.372;2022-12-22T02:07:01;137.32;;;53.10;;
43710;SDS011;29309;42.682;23.372;2022-12-22T02:12:56;114.93;;;45.70;;
43710;SDS011;29309;42.682;23.372;2022-12-22T02:16:41;124.20;;;48.00;;
43710;SDS011;29309;42.682;23.372;2022-12-22T02:22:25;113.47;;;44.43;;
43710;SDS011;29309;42.682;23.372;2022-12-22T02:25:19;106.40;;;44.50;;
43710;SDS011;29309;42.682;23.372;2022-12-22T02:28:09;117.63;;;45.38;;
43710;SDS011;29309;42.682;23.372;2022-12-22T02:30:56;114.80;;;45.88;;
43710;SDS011;29309;42.682;23.372;2022-12-22T02:33:40;106.35;;;45.08;;
43710;SDS011;29309;42.682;23.372;2022-12-22T02:39:28;109.85;;;49.22;;
43710;SDS011;29309;42.682;23.372;2022-12-22T02:42:33;112.90;;;46.53;;
43710;SDS011;29309;42.682;23.372;2022-12-22T02:48:21;123.88;;;48.55;;
43710;SDS011;29309;42.682;23.372;2022-12-22T02:51:20;125.88;;;47.13;;
43710;SDS011;29309;42.682;23.372;2022-12-22T02:54:09;123.13;;;50.90;;
43710;SDS011;29309;42.682;23.372;2022-12-22T02:56:54;125.10;;;51.92;;
43710;SDS011;29309;42.682;23.372;2022-12-22T02:59:38;135.32;;;52.70;;
43710;SDS011;29309;42.682;23.372;2022-12-22T03:02:22;131.57;;;51.40;;
43710;SDS011;29309;42.682;23.372;2022-12-22T03:05:06;123.05;;;50.88;;
43710;SDS011;29309;42.682;23.372;2022-12-22T03:07:50;127.60;;;50.28;;
43710;SDS011;29309;42.682;23.372;2022-12-22T03:10:34;115.13;;;49.78;;
43710;SDS011;29309;42.682;23.372;2022-12-22T03:13:18;118.85;;;46.60;;
43710;SDS011;29309;42.682;23.372;2022-12-22T03:16:02;117.72;;;47.08;;
43710;SDS011;29309;42.682;23.372;2022-12-22T03:18:46;112.45;;;46.35;;
43710;SDS011;29309;42.682;23.372;2022-12-22T03:21:30;119.88;;;48.60;;
43710;SDS011;29309;42.682;23.372;2022-12-22T03:24:14;104.47;;;44.90;;
43710;SDS011;29309;42.682;23.372;2022-12-22T03:26:58;111.65;;;48.25;;
43710;SDS011;29309;42.682;23.372;2022-12-22T03:29:23;121.75;;;47.00;;
43710;SDS011;29309;42.682;23.372;2022-12-22T03:31:48;119.85;;;46.92;;
43710;SDS011;29309;42.682;23.372;2022-12-22T03:34:14;141.20;;;55.53;;
43710;SDS011;29309;42.682;23.372;2022-12-22T03:36:39;136.77;;;56.33;;
43710;SDS011;29309;42.682;23.372;2022-12-22T03:39:05;161.20;;;63.85;;
43710;SDS011;29309;42.682;23.372;2022-12-22T03:41:30;141.02;;;57.47;;
43710;SDS011;29309;42.682;23.372;2022-12-22T03:44:14;149.07;;;60.38;;
43710;SDS011;29309;42.682;23.372;2022-12-22T03:46:58;156.50;;;62.65;;
43710;SDS011;29309;42.682;23.372;2022-12-22T03:49:23;172.13;;;65.38;;
43710;SDS011;29309;42.682;23.372;2022-12-22T03:51:50;173.27;;;67.35;;
43710;SDS011;29309;42.682;23.372;2022-12-22T03:54:17;177.52;;;67.82;;
43710;SDS011;29309;42.682;23.372;2022-12-22T03:56:45;181.40;;;70.75;;
43710;SDS011;29309;42.682;23.372;2022-12-22T03:59:11;190.45;;;72.35;;
43710;SDS011;29309;42.682;23.372;2022-12-22T04:01:38;209.63;;;76.30;;
43710;SDS011;29309;42.682;23.372;2022-12-22T04:04:06;192.18;;;77.72;;
43710;SDS011;29309;42.682;23.372;2022-12-22T04:06:31;210.05;;;82.40;;
43710;SDS011;29309;42.682;23.372;2022-12-22T04:08:57;198.82;;;76.53;;
43710;SDS011;29309;42.682;23.372;2022-12-22T04:11:22;176.80;;;72.97;;
43710;SDS011;29309;42.682;23.372;2022-12-22T04:14:06;199.10;;;75.38;;
43710;SDS011;29309;42.682;23.372;2022-12-22T04:16:31;165.32;;;70.82;;
43710;SDS011;29309;42.682;23.372;2022-12-22T04:18:57;169.88;;;67.18;;
43710;SDS011;29309;42.682;23.372;2022-12-22T04:21:22;161.60;;;65.43;;
43710;SDS011;29309;42.682;23.372;2022-12-22T04:23:48;157.77;;;65.05;;
43710;SDS011;29309;42.682;23.372;2022-12-22T04:26:21;145.48;;;61.55;;
43710;SDS011;29309;42.682;23.372;2022-12-22T04:28:48;151.52;;;60.70;;
43710;SDS011;29309;42.682;23.372;2022-12-22T04:31:14;131.07;;;56.92;;
43710;SDS011;29309;42.682;23.372;2022-12-22T04:33:39;131.93;;;54.03;;
43710;SDS011;29309;42.682;23.372;2022-12-22T04:36:05;144.68;;;54.72;;
43710;SDS011;29309;42.682;23.372;2022-12-22T04:38:31;141.52;;;54.22;;
43710;SDS011;29309;42.682;23.372;2022-12-22T04:40:56;133.18;;;54.15;;
43710;SDS011;29309;42.682;23.372;2022-12-22T04:43:22;134.80;;;54.10;;
43710;SDS011;29309;42.682;23.372;2022-12-22T04:45:50;128.40;;;55.50;;
43710;SDS011;29309;42.682;23.372;2022-12-22T04:48:17;132.88;;;50.63;;
43710;SDS011;29309;42.682;23.372;2022-12-22T04:50:42;120.68;;;50.35;;
43710;SDS011;29309;42.682;23.372;2022-12-22T04:53:08;124.82;;;47.92;;
43710;SDS011;29309;42.682;23.372;2022-12-22T04:55:33;110.88;;;47.03;;
43710;SDS011;29309;42.682;23.372;2022-12-22T04:57:59;112.57;;;51.33;;
43710;SDS011;29309;42.682;23.372;2022-12-22T05:00:24;118.97;;;51.95;;
43710;SDS011;29309;42.682;23.372;2022-12-22T05:02:51;124.15;;;50.80;;
43710;SDS011;29309;42.682;23.372;2022-12-22T05:05:17;107.35;;;46.80;;
43710;SDS011;29309;42.682;23.372;2022-12-22T05:07:42;101.47;;;44.03;;
43710;SDS011;29309;42.682;23.372;2022-12-22T05:10:08;104.95;;;46.35;;
43710;SDS011;29309;42.682;23.372;2022-12-22T05:12:34;90.85;;;36.10;;
43710;SDS011;29309;42.682;23.372;2022-12-22T05:15:18;83.88;;;33.90;;
43710;SDS011;29309;42.682;23.372;2022-12-22T05:17:44;70.88;;;32.13;;
43710;SDS011;29309;42.682;23.372;2022-12-22T05:20:10;85.30;;;34.08;;
43710;SDS011;29309;42.682;23.372;2022-12-22T05:22:39;71.20;;;31.25;;
43710;SDS011;29309;42.682;23.372;2022-12-22T05:25:04;77.00;;;32.58;;
43710;SDS011;29309;42.682;23.372;2022-12-22T05:27:30;73.60;;;32.55;;
43710;SDS011;29309;42.682;23.372;2022-12-22T05:29:55;78.63;;;33.15;;
43710;SDS011;29309;42.682;23.372;2022-12-22T05:32:21;74.78;;;33.25;;
43710;SDS011;29309;42.682;23.372;2022-12-22T05:34:46;82.43;;;34.10;;
43710;SDS011;29309;42.682;23.372;2022-12-22T05:37:12;76.22;;;33.75;;
43710;SDS011;29309;42.682;23.372;2022-12-22T05:39:37;91.93;;;35.25;;
43710;SDS011;29309;42.682;23.372;2022-12-22T05:42:03;72.18;;;31.35;;
43710;SDS011;29309;42.682;23.372;2022-12-22T05:44:29;70.15;;;30.35;;
43710;SDS011;29309;42.682;23.372;2022-12-22T05:46:54;72.55;;;28.27;;
43710;SDS011;29309;42.682;23.372;2022-12-22T05:49:20;68.85;;;28.67;;
43710;SDS011;29309;42.682;23.372;2022-12-22T05:51:46;74.25;;;29.63;;
43710;SDS011;29309;42.682;23.372;2022-12-22T05:54:12;74.93;;;31.17;;
43710;SDS011;29309;42.682;23.372;2022-12-22T05:56:37;73.15;;;32.25;;
43710;SDS011;29309;42.682;23.372;2022-12-22T05:59:03;77.13;;;30.50;;
43710;SDS011;29309;42.682;23.372;2022-12-22T06:01:28;77.28;;;31.02;;
43710;SDS011;29309;42.682;23.372;2022-12-22T06:03:54;73.43;;;31.42;;
43710;SDS011;29309;42.682;23.372;2022-12-22T06:06:19;79.95;;;33.38;;
43710;SDS011;29309;42.682;23.372;2022-12-22T06:08:45;80.25;;;32.80;;
43710;SDS011;29309;42.682;23.372;2022-12-22T06:11:11;72.38;;;33.30;;
43710;SDS011;29309;42.682;23.372;2022-12-22T06:13:37;81.72;;;33.33;;
43710;SDS011;29309;42.682;23.372;2022-12-22T06:16:12;81.93;;;35.50;;
43710;SDS011;29309;42.682;23.372;2022-12-22T06:18:41;82.95;;;36.13;;
43710;SDS011;29309;42.682;23.372;2022-12-22T06:21:07;82.70;;;34.28;;
43710;SDS011;29309;42.682;23.372;2022-12-22T06:23:36;81.38;;;33.78;;
43710;SDS011;29309;42.682;23.372;2022-12-22T06:26:01;78.68;;;33.88;;
43710;SDS011;29309;42.682;23.372;2022-12-22T06:28:27;77.72;;;33.40;;
43710;SDS011;29309;42.682;23.372;2022-12-22T06:30:53;83.63;;;34.58;;
43710;SDS011;29309;42.682;23.372;2022-12-22T06:33:19;77.38;;;32.90;;
43710;SDS011;29309;42.682;23.372;2022-12-22T06:35:45;78.25;;;35.00;;
43710;SDS011;29309;42.682;23.372;2022-12-22T06:38:10;82.63;;;33.22;;
43710;SDS011;29309;42.682;23.372;2022-12-22T06:40:36;76.72;;;32.28;;
43710;SDS011;29309;42.682;23.372;2022-12-22T06:43:01;67.55;;;29.83;;
43710;SDS011;29309;42.682;23.372;2022-12-22T06:45:37;67.40;;;31.30;;
43710;SDS011;29309;42.682;23.372;2022-12-22T06:48:04;65.28;;;28.42;;
43710;SDS011;29309;42.682;23.372;2022-12-22T06:50:30;69.70;;;30.27;;
43710;SDS011;29309;42.682;23.372;2022-12-22T06:52:56;77.38;;;32.55;;
43710;SDS011;29309;42.682;23.372;2022-12-22T06:55:21;71.78;;;32.42;;
43710;SDS011;29309;42.682;23.372;2022-12-22T06:57:47;68.35;;;32.03;;
43710;SDS011;29309;42.682;23.372;2022-12-22T07:00:13;63.92;;;30.67;;
43710;SDS011;29309;42.682;23.372;2022-12-22T07:02:39;72.45;;;29.90;;
43710;SDS011;29309;42.682;23.372;2022-12-22T07:05:07;59.53;;;26.73;;
43710;SDS011;29309;42.682;23.372;2022-12-22T07:07:33;59.05;;;29.52;;
43710;SDS011;29309;42.682;23.372;2022-12-22T07:09:58;60.55;;;27.70;;
43710;SDS011;29309;42.682;23.372;2022-12-22T07:12:24;52.45;;;26.38;;
43710;SDS011;29309;42.682;23.372;2022-12-22T07:14:49;53.50;;;26.20;;
43710;SDS011;29309;42.682;23.372;2022-12-22T07:17:15;61.42;;;30.05;;
43710;SDS011;29309;42.682;23.372;2022-12-22T07:19:40;68.10;;;31.92;;
43710;SDS011;29309;42.682;23.372;2022-12-22T07:22:06;68.25;;;29.02;;
43710;SDS011;29309;42.682;23.372;2022-12-22T07:24:31;65.72;;;29.85;;
43710;SDS011;29309;42.682;23.372;2022-12-22T07:26:57;63.42;;;32.90;;
43710;SDS011;29309;42.682;23.372;2022-12-22T07:29:23;72.38;;;31.10;;
43710;SDS011;29309;42.682;23.372;2022-12-22T07:31:48;68.90;;;32.30;;
43710;SDS011;29309;42.682;23.372;2022-12-22T07:34:14;66.22;;;30.30;;
43710;SDS011;29309;42.682;23.372;2022-12-22T07:36:40;56.83;;;28.98;;
43710;SDS011;29309;42.682;23.372;2022-12-22T07:39:05;55.85;;;28.00;;
43710;SDS011;29309;42.682;23.372;2022-12-22T07:41:32;50.25;;;27.75;;
43710;SDS011;29309;42.682;23.372;2022-12-22T07:44:33;53.38;;;25.77;;
43710;SDS011;29309;42.682;23.372;2022-12-22T07:46:58;51.10;;;25.98;;
43710;SDS011;29309;42.682;23.372;2022-12-22T07:49:24;56.00;;;26.67;;
43710;SDS011;29309;42.682;23.372;2022-12-22T07:52:08;66.63;;;31.73;;
43710;SDS011;29309;42.682;23.372;2022-12-22T07:54:33;76.72;;;37.28;;
43710;SDS011;29309;42.682;23.372;2022-12-22T07:56:59;95.43;;;40.38;;
43710;SDS011;29309;42.682;23.372;2022-12-22T07:59:25;80.57;;;41.17;;
43710;SDS011;29309;42.682;23.372;2022-12-22T08:01:50;90.75;;;41.28;;
43710;SDS011;29309;42.682;23.372;2022-12-22T08:04:16;68.65;;;35.35;;
43710;SDS011;29309;42.682;23.372;2022-12-22T08:06:42;65.75;;;34.60;;
43710;SDS011;29309;42.682;23.372;2022-12-22T08:09:07;64.43;;;33.88;;
43710;SDS011;29309;42.682;23.372;2022-12-22T08:11:34;64.45;;;34.63;;
43710;SDS011;29309;42.682;23.372;2022-12-22T08:13:59;66.22;;;34.47;;
43710;SDS011;29309;42.682;23.372;2022-12-22T08:16:25;59.45;;;32.58;;
43710;SDS011;29309;42.682;23.372;2022-12-22T08:18:51;62.58;;;29.25;;
43710;SDS011;29309;42.682;23.372;2022-12-22T08:21:16;58.90;;;26.83;;
43710;SDS011;29309;42.682;23.372;2022-12-22T08:23:42;46.13;;;25.88;;
43710;SDS011;29309;42.682;23.372;2022-12-22T08:26:10;50.80;;;26.83;;
43710;SDS011;29309;42.682;23.372;2022-12-22T08:28:43;52.90;;;26.02;;
43710;SDS011;29309;42.682;23.372;2022-12-22T08:31:14;49.50;;;26.35;;
43710;SDS011;29309;42.682;23.372;2022-12-22T08:33:40;47.42;;;25.42;;
43710;SDS011;29309;42.682;23.372;2022-12-22T08:36:06;55.05;;;26.02;;
43710;SDS011;29309;42.682;23.372;2022-12-22T08:38:34;55.13;;;26.88;;
43710;SDS011;29309;42.682;23.372;2022-12-22T08:41:01;56.25;;;24.63;;
43710;SDS011;29309;42.682;23.372;2022-12-22T08:43:26;57.78;;;27.35;;
43710;SDS011;29309;42.682;23.372;2022-12-22T08:45:55;57.95;;;26.58;;
43710;SDS011;29309;42.682;23.372;2022-12-22T08:48:20;47.72;;;25.00;;
43710;SDS011;29309;42.682;23.372;2022-12-22T08:50:46;56.30;;;26.20;;
43710;SDS011;29309;42.682;23.372;2022-12-22T08:53:11;53.75;;;26.60;;
43710;SDS011;29309;42.682;23.372;2022-12-22T08:55:37;47.80;;;24.25;;
43710;SDS011;29309;42.682;23.372;2022-12-22T08:58:02;51.97;;;24.17;;
43710;SDS011;29309;42.682;23.372;2022-12-22T09:00:28;53.92;;;24.08;;
43710;SDS011;29309;42.682;23.372;2022-12-22T09:02:53;51.15;;;21.80;;
43710;SDS011;29309;42.682;23.372;2022-12-22T09:05:19;54.30;;;23.27;;
43710;SDS011;29309;42.682;23.372;2022-12-22T09:07:44;44.65;;;22.02;;
43710;SDS011;29309;42.682;23.372;2022-12-22T09:10:11;42.40;;;21.23;;
43710;SDS011;29309;42.682;23.372;2022-12-22T09:12:37;39.22;;;20.60;;
43710;SDS011;29309;42.682;23.372;2022-12-22T09:15:03;50.28;;;22.38;;
43710;SDS011;29309;42.682;23.372;2022-12-22T09:17:31;43.63;;;21.60;;
43710;SDS011;29309;42.682;23.372;2022-12-22T09:19:56;60.75;;;22.60;;
43710;SDS011;29309;42.682;23.372;2022-12-22T09:22:22;43.00;;;20.83;;
43710;SDS011;29309;42.682;23.372;2022-12-22T09:24:47;36.20;;;20.55;;
43710;SDS011;29309;42.682;23.372;2022-12-22T09:27:12;44.53;;;20.13;;
43710;SDS011;29309;42.682;23.372;2022-12-22T09:29:39;47.15;;;19.20;;
43710;SDS011;29309;42.682;23.372;2022-12-22T09:32:04;38.10;;;17.63;;
43710;SDS011;29309;42.682;23.372;2022-12-22T09:34:30;36.20;;;18.67;;
43710;SDS011;29309;42.682;23.372;2022-12-22T09:36:55;33.03;;;17.88;;
43710;SDS011;29309;42.682;23.372;2022-12-22T09:39:21;40.75;;;18.38;;
43710;SDS011;29309;42.682;23.372;2022-12-22T09:41:50;39.90;;;19.50;;
43710;SDS011;29309;42.682;23.372;2022-12-22T09:44:51;44.42;;;19.50;;
43710;SDS011;29309;42.682;23.372;2022-12-22T09:49:45;47.03;;;20.92;;
43710;SDS011;29309;42.682;23.372;2022-12-22T09:52:26;47.30;;;21.42;;
43710;SDS011;29309;42.682;23.372;2022-12-22T09:54:57;45.20;;;21.30;;
43710;SDS011;29309;42.682;23.372;2022-12-22T09:57:24;48.08;;;20.90;;
43710;SDS011;29309;42.682;23.372;2022-12-22T09:59:54;42.50;;;20.27;;
43710;SDS011;29309;42.682;23.372;2022-12-22T10:02:31;57.22;;;21.20;;
43710;SDS011;29309;42.682;23.372;2022-12-22T10:05:19;44.22;;;21.77;;
43710;SDS011;29309;42.682;23.372;2022-12-22T10:08:01;47.78;;;21.42;;
43710;SDS011;29309;42.682;23.372;2022-12-22T10:10:33;46.95;;;23.13;;
43710;SDS011;29309;42.682;23.372;2022-12-22T10:12:59;46.25;;;23.13;;
43710;SDS011;29309;42.682;23.372;2022-12-22T10:15:34;49.85;;;21.60;;
43710;SDS011;29309;42.682;23.372;2022-12-22T10:18:17;48.75;;;23.10;;
43710;SDS011;29309;42.682;23.372;2022-12-22T10:20:46;46.88;;;22.35;;
43710;SDS011;29309;42.682;23.372;2022-12-22T10:23:30;55.27;;;23.77;;
43710;SDS011;29309;42.682;23.372;2022-12-22T10:26:04;48.50;;;23.50;;
43710;SDS011;29309;42.682;23.372;2022-12-22T10:28:53;55.30;;;24.50;;
43710;SDS011;29309;42.682;23.372;2022-12-22T10:31:26;53.08;;;25.63;;
43710;SDS011;29309;42.682;23.372;2022-12-22T10:33:54;53.83;;;25.92;;
43710;SDS011;29309;42.682;23.372;2022-12-22T10:36:33;54.08;;;24.90;;
43710;SDS011;29309;42.682;23.372;2022-12-22T10:39:09;53.30;;;26.30;;
43710;SDS011;29309;42.682;23.372;2022-12-22T10:41:36;61.22;;;28.52;;
43710;SDS011;29309;42.682;23.372;2022-12-22T10:44:08;52.92;;;27.85;;
43710;SDS011;29309;42.682;23.372;2022-12-22T10:46:41;56.60;;;27.52;;
43710;SDS011;29309;42.682;23.372;2022-12-22T10:49:29;52.55;;;27.13;;
43710;SDS011;29309;42.682;23.372;2022-12-22T10:54:43;51.70;;;25.73;;
43710;SDS011;29309;42.682;23.372;2022-12-22T11:05:06;52.13;;;26.50;;
43710;SDS011;29309;42.682;23.372;2022-12-22T11:07:35;56.25;;;24.77;;
43710;SDS011;29309;42.682;23.372;2022-12-22T11:16:29;52.78;;;24.38;;
43710;SDS011;29309;42.682;23.372;2022-12-22T11:19:15;54.03;;;23.48;;
43710;SDS011;29309;42.682;23.372;2022-12-22T11:21:59;40.72;;;21.80;;
43710;SDS011;29309;42.682;23.372;2022-12-22T11:24:56;44.45;;;23.08;;
43710;SDS011;29309;42.682;23.372;2022-12-22T11:27:31;54.75;;;22.73;;
43710;SDS011;29309;42.682;23.372;2022-12-22T11:30:11;50.00;;;23.05;;
43710;SDS011;29309;42.682;23.372;2022-12-22T11:32:51;40.55;;;22.10;;
43710;SDS011;29309;42.682;23.372;2022-12-22T11:35:50;43.47;;;23.23;;
43710;SDS011;29309;42.682;23.372;2022-12-22T11:44:08;44.65;;;22.88;;
43710;SDS011;29309;42.682;23.372;2022-12-22T11:56:04;43.53;;;24.42;;
43710;SDS011;29309;42.682;23.372;2022-12-22T11:58:54;55.75;;;27.30;;
43710;SDS011;29309;42.682;23.372;2022-12-22T12:06:54;47.60;;;27.10;;
43710;SDS011;29309;42.682;23.372;2022-12-22T12:12:13;55.22;;;28.65;;
43710;SDS011;29309;42.682;23.372;2022-12-22T12:34:22;55.58;;;29.15;;
43710;SDS011;29309;42.682;23.372;2022-12-22T12:44:56;54.35;;;30.23;;
43710;SDS011;29309;42.682;23.372;2022-12-22T12:47:28;55.83;;;30.73;;
43710;SDS011;29309;42.682;23.372;2022-12-22T12:57:58;53.30;;;28.73;;
43710;SDS011;29309;42.682;23.372;2022-12-22T13:02:57;51.63;;;28.13;;
43710;SDS011;29309;42.682;23.372;2022-12-22T13:05:34;55.92;;;28.77;;
43710;SDS011;29309;42.682;23.372;2022-12-22T13:08:23;53.50;;;26.83;;
43710;SDS011;29309;42.682;23.372;2022-12-22T13:21:05;65.97;;;31.20;;
43710;SDS011;29309;42.682;23.372;2022-12-22T13:26:35;66.10;;;32.03;;
43710;SDS011;29309;42.682;23.372;2022-12-22T13:29:07;63.55;;;32.28;;
43710;SDS011;29309;42.682;23.372;2022-12-22T13:36:54;62.25;;;29.85;;
43710;SDS011;29309;42.682;23.372;2022-12-22T13:39:23;64.03;;;31.80;;
43710;SDS011;29309;42.682;23.372;2022-12-22T13:41:49;71.43;;;33.10;;
43710;SDS011;29309;42.682;23.372;2022-12-22T13:44:21;65.15;;;32.58;;
43710;SDS011;29309;42.682;23.372;2022-12-22T13:46:53;71.78;;;31.65;;
43710;SDS011;29309;42.682;23.372;2022-12-22T13:49:19;68.53;;;31.65;;
43710;SDS011;29309;42.682;23.372;2022-12-22T13:51:47;69.03;;;33.25;;
43710;SDS011;29309;42.682;23.372;2022-12-22T13:54:15;65.57;;;32.20;;
43710;SDS011;29309;42.682;23.372;2022-12-22T13:56:50;60.00;;;32.03;;
43710;SDS011;29309;42.682;23.372;2022-12-22T13:59:34;65.03;;;30.48;;
43710;SDS011;29309;42.682;23.372;2022-12-22T14:02:13;68.32;;;34.15;;
43710;SDS011;29309;42.682;23.372;2022-12-22T14:04:41;73.18;;;33.28;;
43710;SDS011;29309;42.682;23.372;2022-12-22T14:07:11;71.25;;;33.50;;
43710;SDS011;29309;42.682;23.372;2022-12-22T14:09:48;62.90;;;29.73;;
43710;SDS011;29309;42.682;23.372;2022-12-22T14:12:25;68.07;;;34.05;;
43710;SDS011;29309;42.682;23.372;2022-12-22T14:14:57;77.47;;;33.50;;
43710;SDS011;29309;42.682;23.372;2022-12-22T14:17:26;57.03;;;27.23;;
43710;SDS011;29309;42.682;23.372;2022-12-22T14:19:55;67.18;;;29.92;;
43710;SDS011;29309;42.682;23.372;2022-12-22T14:24:54;52.35;;;27.75;;
43710;SDS011;29309;42.682;23.372;2022-12-22T14:27:34;57.35;;;28.90;;
43710;SDS011;29309;42.682;23.372;2022-12-22T14:30:04;63.20;;;30.63;;
43710;SDS011;29309;42.682;23.372;2022-12-22T14:33:13;57.25;;;27.52;;
43710;SDS011;29309;42.682;23.372;2022-12-22T14:35:41;47.38;;;25.52;;
43710;SDS011;29309;42.682;23.372;2022-12-22T14:40:41;51.67;;;26.75;;
43710;SDS011;29309;42.682;23.372;2022-12-22T14:45:46;51.13;;;23.77;;
43710;SDS011;29309;42.682;23.372;2022-12-22T14:48:22;51.80;;;24.45;;
43710;SDS011;29309;42.682;23.372;2022-12-22T14:50:51;50.42;;;25.10;;
43710;SDS011;29309;42.682;23.372;2022-12-22T14:53:21;59.60;;;26.35;;
43710;SDS011;29309;42.682;23.372;2022-12-22T14:55:50;57.13;;;23.90;;
43710;SDS011;29309;42.682;23.372;2022-12-22T14:58:18;59.05;;;25.88;;
43710;SDS011;29309;42.682;23.372;2022-12-22T15:01:10;67.45;;;24.70;;
43710;SDS011;29309;42.682;23.372;2022-12-22T15:03:38;47.83;;;24.00;;
43710;SDS011;29309;42.682;23.372;2022-12-22T15:08:48;55.70;;;25.58;;
43710;SDS011;29309;42.682;23.372;2022-12-22T15:11:17;67.75;;;27.25;;
43710;SDS011;29309;42.682;23.372;2022-12-22T15:13:45;60.53;;;26.48;;
43710;SDS011;29309;42.682;23.372;2022-12-22T15:16:13;61.88;;;28.85;;
43710;SDS011;29309;42.682;23.372;2022-12-22T15:18:40;74.28;;;27.42;;
43710;SDS011;29309;42.682;23.372;2022-12-22T15:21:07;60.17;;;28.55;;
43710;SDS011;29309;42.682;23.372;2022-12-22T15:23:36;59.35;;;28.90;;
43710;SDS011;29309;42.682;23.372;2022-12-22T15:26:01;69.85;;;27.15;;
43710;SDS011;29309;42.682;23.372;2022-12-22T15:28:27;62.90;;;26.20;;
43710;SDS011;29309;42.682;23.372;2022-12-22T15:30:52;65.53;;;26.00;;
43710;SDS011;29309;42.682;23.372;2022-12-22T15:33:18;71.90;;;26.13;;
43710;SDS011;29309;42.682;23.372;2022-12-22T15:35:44;64.85;;;27.25;;
43710;SDS011;29309;42.682;23.372;2022-12-22T15:38:28;58.85;;;26.00;;
43710;SDS011;29309;42.682;23.372;2022-12-22T15:40:53;66.30;;;26.45;;
43710;SDS011;29309;42.682;23.372;2022-12-22T15:43:19;60.25;;;26.23;;
43710;SDS011;29309;42.682;23.372;2022-12-22T15:45:46;64.10;;;27.02;;
43710;SDS011;29309;42.682;23.372;2022-12-22T15:48:13;73.57;;;28.02;;
43710;SDS011;29309;42.682;23.372;2022-12-22T15:50:45;64.50;;;27.10;;
43710;SDS011;29309;42.682;23.372;2022-12-22T15:53:11;68.65;;;28.30;;
43710;SDS011;29309;42.682;23.372;2022-12-22T15:55:41;74.65;;;29.95;;
43710;SDS011;29309;42.682;23.372;2022-12-22T15:58:09;74.05;;;29.42;;
43710;SDS011;29309;42.682;23.372;2022-12-22T16:00:37;60.15;;;28.63;;
43710;SDS011;29309;42.682;23.372;2022-12-22T16:03:03;90.10;;;31.42;;
43710;SDS011;29309;42.682;23.372;2022-12-22T16:05:30;87.43;;;32.53;;
43710;SDS011;29309;42.682;23.372;2022-12-22T16:07:56;80.85;;;32.95;;
43710;SDS011;29309;42.682;23.372;2022-12-22T16:10:26;93.38;;;31.27;;
43710;SDS011;29309;42.682;23.372;2022-12-22T16:12:56;89.03;;;31.85;;
43710;SDS011;29309;42.682;23.372;2022-12-22T16:15:31;93.30;;;33.13;;
43710;SDS011;29309;42.682;23.372;2022-12-22T16:18:01;71.55;;;28.10;;
43710;SDS011;29309;42.682;23.372;2022-12-22T16:20:27;73.22;;;28.77;;
43710;SDS011;29309;42.682;23.372;2022-12-22T16:22:55;78.97;;;31.05;;
43710;SDS011;29309;42.682;23.372;2022-12-22T16:25:24;78.03;;;27.27;;
43710;SDS011;29309;42.682;23.372;2022-12-22T16:27:53;75.22;;;27.67;;
43710;SDS011;29309;42.682;23.372;2022-12-22T16:30:23;69.40;;;28.42;;
43710;SDS011;29309;42.682;23.372;2022-12-22T16:32:50;62.55;;;28.38;;
43710;SDS011;29309;42.682;23.372;2022-12-22T16:35:17;64.43;;;27.23;;
43710;SDS011;29309;42.682;23.372;2022-12-22T16:37:45;72.20;;;29.23;;
43710;SDS011;29309;42.682;23.372;2022-12-22T16:40:13;59.80;;;29.25;;
43710;SDS011;29309;42.682;23.372;2022-12-22T16:42:39;70.38;;;29.10;;
43710;SDS011;29309;42.682;23.372;2022-12-22T16:45:17;102.00;;;31.08;;